Time;durP1;ratioP1;P1;durP2;ratioP2;P2;SDS_P1;SDS_P2;PMS_P1;PMS_P2;Temp;Humidity;BMP_temperature;BMP_pressure;BME280_temperature;BME280_humidity;BME280_pressure;Samples;Min_cycle;Max_cycle;Signal;HPM_P1;HPM_P2
2023/01/05 00:02:23;;;;;;;21.75;4.30;;;10.30;99.90;;;;;;5028189;28;20076;-68
2023/01/05 00:04:49;;;;;;;18.35;3.42;;;10.30;99.90;;;;;;5029724;28;20033;-69
2023/01/05 00:07:15;;;;;;;14.93;3.10;;;10.30;99.90;;;;;;5030201;28;20091;-68
2023/01/05 00:09:41;;;;;;;22.05;4.20;;;10.30;99.90;;;;;;5030532;28;20056;-68
2023/01/05 00:22:29;;;;;;;14.90;4.32;;;10.30;99.90;;;;;;5029751;28;20037;-68
2023/01/05 00:23:19;;;;;;;22.75;3.30;;;10.30;99.90;;;;;;5028918;28;20046;-68
2023/01/05 00:25:45;;;;;;;19.95;4.20;;;10.30;99.90;;;;;;5029499;28;20049;-68
2023/01/05 00:28:10;;;;;;;21.00;3.85;;;10.30;99.90;;;;;;5033972;28;20072;-68
2023/01/05 00:30:41;;;;;;;20.58;4.13;;;10.30;99.90;;;;;;5033910;28;20073;-69
2023/01/05 00:33:12;;;;;;;27.25;3.70;;;10.30;99.90;;;;;;5033894;28;20037;-68
2023/01/05 00:35:38;;;;;;;32.38;4.72;;;10.30;99.90;;;;;;5031606;28;20099;-68
2023/01/05 00:38:05;;;;;;;17.40;5.55;;;10.20;99.90;;;;;;5032461;28;20104;-68
2023/01/05 00:40:32;;;;;;;22.15;3.17;;;10.30;99.90;;;;;;5033791;28;20060;-67
2023/01/05 00:42:58;;;;;;;17.20;3.67;;;10.30;99.90;;;;;;5032471;28;20088;-69
2023/01/05 00:45:23;;;;;;;12.80;2.88;;;10.30;99.90;;;;;;5032744;28;20383;-69
2023/01/05 00:47:50;;;;;;;28.45;4.43;;;10.30;99.90;;;;;;5032533;28;20088;-68
2023/01/05 00:50:17;;;;;;;14.70;4.45;;;10.30;99.90;;;;;;5033448;28;20134;-68
2023/01/05 00:52:43;;;;;;;18.45;4.15;;;10.30;99.90;;;;;;5033700;28;20041;-68
2023/01/05 00:55:09;;;;;;;21.13;3.38;;;10.30;99.90;;;;;;5031457;28;20029;-68
2023/01/05 00:57:35;;;;;;;22.13;3.80;;;10.30;99.90;;;;;;5053219;28;20048;-68
2023/01/05 01:00:02;;;;;;;23.70;3.88;;;10.30;99.90;;;;;;5053151;28;20037;-68
2023/01/05 01:02:28;;;;;;;24.77;4.20;;;10.30;99.90;;;;;;5051830;28;20075;-68
2023/01/05 01:04:53;;;;;;;17.88;3.80;;;10.30;99.90;;;;;;5051180;28;20037;-68
2023/01/05 01:07:19;;;;;;;24.67;3.78;;;10.30;99.90;;;;;;5051734;28;20575;-68
2023/01/05 01:09:44;;;;;;;20.60;4.72;;;10.30;99.90;;;;;;5052986;28;20041;-69
2023/01/05 01:12:10;;;;;;;22.30;3.65;;;10.30;99.90;;;;;;5051523;28;20099;-68
2023/01/05 01:14:37;;;;;;;21.98;3.67;;;10.30;99.90;;;;;;5051180;28;20473;-68
2023/01/05 01:17:02;;;;;;;24.95;4.30;;;10.30;99.90;;;;;;5052977;28;20436;-68
2023/01/05 01:19:28;;;;;;;26.08;4.38;;;10.30;99.90;;;;;;5051621;28;20090;-68
2023/01/05 01:21:54;;;;;;;22.15;4.30;;;10.30;99.90;;;;;;5052732;28;20039;-68
2023/01/05 01:24:26;;;;;;;24.05;4.15;;;10.30;99.90;;;;;;5050677;28;20041;-68
2023/01/05 01:26:53;;;;;;;19.40;3.42;;;10.30;99.90;;;;;;5051510;28;20037;-68
2023/01/05 01:29:18;;;;;;;28.23;4.47;;;10.30;99.90;;;;;;5052910;28;20040;-68
2023/01/05 01:31:46;;;;;;;18.20;3.47;;;10.30;99.90;;;;;;5052609;28;20048;-68
2023/01/05 01:34:12;;;;;;;24.67;3.33;;;10.30;99.90;;;;;;5051970;28;20043;-68
2023/01/05 01:36:37;;;;;;;23.25;3.95;;;10.30;99.90;;;;;;5051911;28;20041;-68
2023/01/05 01:39:03;;;;;;;23.80;4.45;;;10.30;99.90;;;;;;5050776;28;20041;-68
2023/01/05 01:41:29;;;;;;;20.08;4.07;;;10.30;99.90;;;;;;5052810;28;20489;-68
2023/01/05 01:43:56;;;;;;;19.73;3.75;;;10.30;99.90;;;;;;5051691;28;20041;-68
2023/01/05 01:46:24;;;;;;;21.92;4.60;;;10.30;99.90;;;;;;5052505;28;20064;-68
2023/01/05 01:49:07;;;;;;;35.13;4.57;;;10.30;99.90;;;;;;5052441;28;20397;-68
2023/01/05 01:51:37;;;;;;;22.98;3.78;;;10.30;99.90;;;;;;5051053;28;20045;-68
2023/01/05 01:54:10;;;;;;;13.38;3.28;;;10.30;99.90;;;;;;5051647;28;20076;-68
2023/01/05 01:56:41;;;;;;;25.23;3.05;;;10.30;99.90;;;;;;5052504;28;20059;-68
2023/01/05 01:59:07;;;;;;;20.33;3.25;;;10.30;99.90;;;;;;5050570;28;20123;-68
2023/01/05 02:01:33;;;;;;;22.88;4.90;;;10.30;99.90;;;;;;5052093;28;20037;-68
2023/01/05 02:04:00;;;;;;;23.02;4.10;;;10.30;99.90;;;;;;5049878;28;20041;-68
2023/01/05 02:06:26;;;;;;;20.40;3.15;;;10.30;99.90;;;;;;5052183;28;20044;-69
2023/01/05 02:08:52;;;;;;;20.55;3.55;;;10.20;99.90;;;;;;5051959;28;20045;-68
2023/01/05 02:11:59;;;;;;;24.75;3.75;;;10.20;99.90;;;;;;5052222;28;20041;-68
2023/01/05 02:14:30;;;;;;;16.23;4.07;;;10.20;99.90;;;;;;5051027;28;20102;-68
2023/01/05 02:17:07;;;;;;;12.30;3.10;;;10.20;99.90;;;;;;5051761;28;20701;-68
2023/01/05 02:20:14;;;;;;;14.90;2.75;;;10.20;99.90;;;;;;5051817;28;20036;-68
2023/01/05 02:22:58;;;;;;;18.48;4.32;;;10.20;99.90;;;;;;5051583;28;20048;-69
2023/01/05 02:25:48;;;;;;;9.98;3.00;;;10.20;99.90;;;;;;5050982;28;20124;-68
2023/01/05 02:28:22;;;;;;;14.18;3.08;;;10.20;99.90;;;;;;5050419;28;20048;-68
2023/01/05 02:31:18;;;;;;;18.10;3.70;;;10.20;99.90;;;;;;5050338;28;20440;-68
2023/01/05 02:34:00;;;;;;;16.40;3.10;;;10.10;99.90;;;;;;5051132;28;20133;-69
2023/01/05 02:36:45;;;;;;;24.35;4.20;;;10.20;99.90;;;;;;5050128;28;20044;-68
2023/01/05 02:39:17;;;;;;;18.73;3.28;;;10.10;99.90;;;;;;5050050;28;20045;-68
2023/01/05 02:41:56;;;;;;;26.93;5.50;;;10.20;99.90;;;;;;5051479;28;20037;-68
2023/01/05 02:44:26;;;;;;;17.52;2.88;;;10.20;99.90;;;;;;5050622;28;20045;-68
2023/01/05 02:47:23;;;;;;;19.58;3.75;;;10.20;99.90;;;;;;5050119;28;20390;-68
2023/01/05 02:49:50;;;;;;;19.20;2.90;;;10.20;99.90;;;;;;5049501;28;20467;-68
2023/01/05 02:52:17;;;;;;;13.50;2.85;;;10.20;99.90;;;;;;5051226;28;20410;-68
2023/01/05 02:54:56;;;;;;;16.95;3.47;;;10.20;99.90;;;;;;5050529;28;20048;-68
2023/01/05 02:57:47;;;;;;;18.05;2.75;;;10.20;99.90;;;;;;5051102;28;20401;-68
2023/01/05 03:00:24;;;;;;;14.60;3.15;;;10.20;99.90;;;;;;5050934;28;20044;-68
2023/01/05 03:02:58;;;;;;;18.45;3.47;;;10.20;99.90;;;;;;5051066;28;20047;-68
2023/01/05 03:05:36;;;;;;;20.23;3.97;;;10.20;99.90;;;;;;5050417;28;20041;-68
2023/01/05 03:08:06;;;;;;;22.77;3.75;;;10.20;99.90;;;;;;5051144;28;20116;-68
2023/01/05 03:13:42;;;;;;;18.65;3.33;;;10.20;99.90;;;;;;5050908;28;20049;-68
2023/01/05 03:16:11;;;;;;;16.83;4.25;;;10.20;99.90;;;;;;5050603;28;20082;-68
2023/01/05 03:19:34;;;;;;;17.25;3.13;;;10.10;99.90;;;;;;5050629;28;20402;-68
2023/01/05 03:21:26;;;;;;;22.70;3.63;;;10.10;99.90;;;;;;5050604;28;20041;-68
2023/01/05 03:35:29;;;;;;;22.50;3.63;;;10.10;99.90;;;;;;5049773;28;20049;-68
2023/01/05 03:37:56;;;;;;;14.82;2.83;;;10.10;99.90;;;;;;5050783;28;20126;-68
2023/01/05 03:40:30;;;;;;;14.27;2.97;;;10.10;99.90;;;;;;5050625;28;20037;-68
2023/01/05 03:42:57;;;;;;;18.17;3.72;;;10.10;99.90;;;;;;5050671;28;20118;-68
2023/01/05 03:45:27;;;;;;;20.33;3.70;;;10.10;99.90;;;;;;5049668;28;20033;-68
2023/01/05 03:47:54;;;;;;;28.60;3.50;;;10.10;99.90;;;;;;5049209;28;20569;-68
2023/01/05 03:50:20;;;;;;;20.27;3.90;;;10.10;99.90;;;;;;5050645;28;20133;-68
2023/01/05 03:52:46;;;;;;;21.70;3.53;;;10.10;99.90;;;;;;5050587;28;20103;-69
2023/01/05 03:55:11;;;;;;;16.00;3.72;;;10.10;99.90;;;;;;5049824;28;20041;-67
2023/01/05 03:57:37;;;;;;;13.32;2.92;;;10.10;99.90;;;;;;5050404;28;20045;-68
2023/01/05 04:00:04;;;;;;;19.63;3.33;;;10.10;99.90;;;;;;5050342;28;20051;-68
2023/01/05 04:02:30;;;;;;;19.27;3.50;;;10.10;99.90;;;;;;5053251;28;20559;-68
2023/01/05 04:04:55;;;;;;;17.45;2.60;;;10.10;99.90;;;;;;5053579;28;20044;-68
2023/01/05 04:07:21;;;;;;;14.70;2.92;;;10.10;99.90;;;;;;5053151;28;20049;-68
2023/01/05 04:09:46;;;;;;;16.50;3.15;;;10.10;99.90;;;;;;5054311;28;20037;-68
2023/01/05 04:12:12;;;;;;;22.65;3.67;;;10.10;99.90;;;;;;5054270;28;20045;-68
2023/01/05 04:14:37;;;;;;;18.10;2.88;;;10.10;99.90;;;;;;5053538;28;20113;-68
2023/01/05 04:17:03;;;;;;;17.90;3.45;;;10.10;99.90;;;;;;5054021;28;20039;-68
2023/01/05 04:19:29;;;;;;;22.63;4.07;;;10.10;99.90;;;;;;5054240;28;20044;-68
2023/01/05 04:21:54;;;;;;;12.23;3.60;;;10.10;99.90;;;;;;5053739;28;20414;-69
2023/01/05 04:24:20;;;;;;;20.38;4.28;;;10.10;99.90;;;;;;5053528;28;20040;-68
2023/01/05 04:26:45;;;;;;;19.35;3.55;;;10.20;99.90;;;;;;5054091;28;20281;-68
2023/01/05 04:29:12;;;;;;;21.65;3.75;;;10.10;99.90;;;;;;5054067;28;20486;-68
2023/01/05 04:31:37;;;;;;;14.82;2.85;;;10.10;99.90;;;;;;5052280;28;20045;-68
2023/01/05 04:34:03;;;;;;;22.80;3.47;;;10.10;99.90;;;;;;5053039;28;20097;-68
2023/01/05 04:36:28;;;;;;;16.58;3.30;;;10.10;99.90;;;;;;5053859;28;20033;-68
2023/01/05 04:38:54;;;;;;;24.90;3.28;;;10.10;99.90;;;;;;5053611;28;20045;-68
2023/01/05 04:41:20;;;;;;;16.48;3.15;;;10.10;99.90;;;;;;5053580;28;20040;-68
2023/01/05 04:43:45;;;;;;;16.88;3.00;;;10.10;99.90;;;;;;5052778;28;20041;-69
2023/01/05 04:46:11;;;;;;;20.98;3.28;;;10.10;99.90;;;;;;5053671;28;20041;-68
2023/01/05 04:48:36;;;;;;;15.85;2.97;;;10.10;99.90;;;;;;5053644;28;20547;-68
2023/01/05 04:51:02;;;;;;;15.40;3.40;;;10.10;99.90;;;;;;5053697;28;20047;-68
2023/01/05 04:53:27;;;;;;;13.57;3.15;;;10.10;99.90;;;;;;5053516;28;20044;-68
2023/01/05 04:55:53;;;;;;;16.88;3.35;;;10.10;99.90;;;;;;5053047;28;20041;-68
2023/01/05 04:58:19;;;;;;;21.30;3.45;;;10.10;99.90;;;;;;5053253;28;20116;-68
2023/01/05 05:00:45;;;;;;;10.25;3.58;;;10.10;99.90;;;;;;5053497;28;20068;-68
2023/01/05 05:03:10;;;;;;;15.13;2.90;;;10.10;99.90;;;;;;5053232;28;20075;-69
2023/01/05 05:05:36;;;;;;;20.38;3.22;;;10.10;99.90;;;;;;5052450;28;20094;-69
2023/01/05 05:08:01;;;;;;;21.10;3.13;;;10.10;99.90;;;;;;5053245;28;20040;-68
2023/01/05 05:10:27;;;;;;;14.00;3.00;;;10.10;99.90;;;;;;5053231;28;20045;-68
2023/01/05 05:12:53;;;;;;;14.23;2.40;;;10.10;99.90;;;;;;5051975;28;20549;-68
2023/01/05 05:15:18;;;;;;;12.07;2.83;;;10.10;99.90;;;;;;5052231;28;20561;-67
2023/01/05 05:17:44;;;;;;;24.50;4.22;;;10.10;99.90;;;;;;5053085;28;20091;-68
2023/01/05 05:20:10;;;;;;;24.17;4.30;;;10.10;99.90;;;;;;5053060;28;20073;-68
2023/01/05 05:22:35;;;;;;;13.38;2.97;;;10.20;99.90;;;;;;5052964;28;20049;-69
2023/01/05 05:25:01;;;;;;;24.67;2.95;;;10.20;99.90;;;;;;5052166;28;20037;-68
2023/01/05 05:27:27;;;;;;;17.60;3.15;;;10.20;99.90;;;;;;5052873;28;20044;-68
2023/01/05 05:29:52;;;;;;;12.63;3.28;;;10.20;99.90;;;;;;5052613;28;20037;-68
2023/01/05 05:32:18;;;;;;;15.93;2.85;;;10.20;99.90;;;;;;5052641;28;20041;-68
2023/01/05 05:34:43;;;;;;;9.88;2.60;;;10.20;99.90;;;;;;5051905;28;20044;-68
2023/01/05 05:37:09;;;;;;;16.05;3.40;;;10.20;99.90;;;;;;5052451;28;20120;-68
2023/01/05 05:39:34;;;;;;;19.42;2.80;;;10.10;99.90;;;;;;5052826;28;20140;-68
2023/01/05 05:42:00;;;;;;;16.13;2.63;;;10.10;99.90;;;;;;5052415;28;20512;-68
2023/01/05 05:44:26;;;;;;;13.10;2.53;;;10.20;99.90;;;;;;5051860;28;20565;-68
2023/01/05 05:46:51;;;;;;;15.95;3.05;;;10.10;99.90;;;;;;5051067;28;20033;-68
2023/01/05 05:49:17;;;;;;;16.95;3.13;;;10.20;99.90;;;;;;5052386;28;20068;-68
2023/01/05 05:51:42;;;;;;;19.40;3.35;;;10.10;99.90;;;;;;5052426;28;20041;-68
2023/01/05 05:54:08;;;;;;;25.23;4.32;;;10.10;99.90;;;;;;5051891;28;20460;-68
2023/01/05 05:56:33;;;;;;;15.68;3.20;;;10.20;99.90;;;;;;5052413;28;20048;-68
2023/01/05 05:58:59;;;;;;;25.85;3.33;;;10.20;99.90;;;;;;5052180;28;20494;-68
2023/01/05 06:01:24;;;;;;;17.65;3.03;;;10.10;99.90;;;;;;5052093;28;20045;-69
2023/01/05 06:03:50;;;;;;;12.32;2.50;;;10.10;99.90;;;;;;5051540;28;20512;-68
2023/01/05 06:06:15;;;;;;;20.92;3.15;;;10.10;99.90;;;;;;5050761;28;20045;-68
2023/01/05 06:08:41;;;;;;;13.75;3.22;;;10.10;99.90;;;;;;5052100;28;20041;-68
2023/01/05 06:11:07;;;;;;;18.05;3.30;;;10.10;99.90;;;;;;5052058;28;20041;-68
2023/01/05 06:13:32;;;;;;;11.30;2.97;;;10.10;99.90;;;;;;5051783;28;20088;-68
2023/01/05 06:15:58;;;;;;;28.30;4.63;;;10.10;99.90;;;;;;5051112;28;20550;-68
2023/01/05 06:18:24;;;;;;;20.33;3.17;;;10.10;99.90;;;;;;5051677;28;20123;-68
2023/01/05 06:20:49;;;;;;;10.38;3.30;;;10.10;99.90;;;;;;5051722;28;20049;-68
2023/01/05 06:23:15;;;;;;;13.73;4.07;;;10.10;99.90;;;;;;5051462;28;20416;-68
2023/01/05 06:25:40;;;;;;;15.73;3.65;;;10.10;99.90;;;;;;5051149;28;20037;-68
2023/01/05 06:28:06;;;;;;;19.90;3.75;;;10.20;99.90;;;;;;5051620;28;20044;-68
2023/01/05 06:30:31;;;;;;;19.55;3.20;;;10.10;99.90;;;;;;5051888;28;20036;-68
2023/01/05 06:32:57;;;;;;;18.75;3.97;;;10.10;99.90;;;;;;5051498;28;20051;-68
2023/01/05 06:35:23;;;;;;;16.33;3.20;;;10.20;99.90;;;;;;5050901;28;20483;-68
2023/01/05 06:37:48;;;;;;;19.20;3.10;;;10.10;99.90;;;;;;5050205;28;20036;-68
2023/01/05 06:40:14;;;;;;;17.92;3.10;;;10.10;99.90;;;;;;5050064;28;20131;-68
2023/01/05 06:42:40;;;;;;;16.92;3.70;;;10.10;99.90;;;;;;5051409;28;20103;-68
2023/01/05 06:45:08;;;;;;;22.83;3.92;;;10.20;99.90;;;;;;5050743;28;20052;-68
2023/01/05 06:47:34;;;;;;;18.90;2.72;;;10.20;99.90;;;;;;5051262;28;20497;-68
2023/01/05 06:49:59;;;;;;;12.00;3.13;;;10.10;99.90;;;;;;5051070;28;20051;-68
2023/01/05 06:52:25;;;;;;;15.63;3.28;;;10.10;99.90;;;;;;5051359;28;20520;-68
2023/01/05 06:54:51;;;;;;;15.50;3.72;;;10.10;99.90;;;;;;5050263;28;20709;-68
2023/01/05 06:57:16;;;;;;;11.80;3.40;;;10.10;99.90;;;;;;5051295;28;20036;-68
2023/01/05 06:59:42;;;;;;;17.83;2.80;;;10.10;99.90;;;;;;5050912;28;20051;-68
2023/01/05 07:02:15;;;;;;;16.45;3.35;;;10.10;99.90;;;;;;5049622;28;20037;-68
2023/01/05 07:04:41;;;;;;;14.85;3.72;;;10.10;99.90;;;;;;5050509;28;20036;-68
2023/01/05 07:07:07;;;;;;;17.48;3.60;;;10.20;99.90;;;;;;5051094;28;20045;-68
2023/01/05 07:09:33;;;;;;;15.68;2.70;;;10.10;99.90;;;;;;5051053;28;20049;-68
2023/01/05 07:11:58;;;;;;;19.52;3.35;;;10.10;99.90;;;;;;5050778;28;20063;-68
2023/01/05 07:14:24;;;;;;;16.25;3.55;;;10.10;99.90;;;;;;5048811;28;20072;-68
2023/01/05 07:16:49;;;;;;;13.63;2.67;;;10.10;99.90;;;;;;5050671;28;20466;-68
2023/01/05 07:19:15;;;;;;;16.98;3.30;;;10.20;99.90;;;;;;5050974;28;20049;-68
2023/01/05 07:21:40;;;;;;;15.30;3.30;;;10.10;99.90;;;;;;5050720;28;20174;-68
2023/01/05 07:24:06;;;;;;;14.40;2.70;;;10.10;99.90;;;;;;5050048;28;20068;-69
2023/01/05 07:26:32;;;;;;;10.98;2.75;;;10.10;99.90;;;;;;5049266;28;20044;-68
2023/01/05 07:28:57;;;;;;;13.18;3.55;;;10.10;99.90;;;;;;5050800;28;20041;-68
2023/01/05 07:31:23;;;;;;;13.35;2.42;;;10.10;99.90;;;;;;5050584;28;20195;-68
2023/01/05 07:33:48;;;;;;;20.80;3.38;;;10.10;99.90;;;;;;5049760;28;20049;-68
2023/01/05 07:36:14;;;;;;;23.08;3.42;;;10.00;99.90;;;;;;5050188;28;20121;-67
2023/01/05 07:38:40;;;;;;;23.70;3.42;;;10.00;99.90;;;;;;5048925;28;20057;-67
2023/01/05 07:41:06;;;;;;;13.52;3.42;;;10.10;99.90;;;;;;5050319;28;20548;-68
2023/01/05 07:43:31;;;;;;;17.27;2.85;;;10.10;99.90;;;;;;5048970;28;20032;-68
2023/01/05 07:45:58;;;;;;;18.05;3.67;;;10.10;99.90;;;;;;5049724;28;20032;-67
2023/01/05 07:48:24;;;;;;;23.50;3.63;;;10.00;99.90;;;;;;5050651;28;20095;-68
2023/01/05 07:50:49;;;;;;;16.98;2.85;;;10.00;99.90;;;;;;5050785;28;20052;-67
2023/01/05 07:53:15;;;;;;;22.60;3.25;;;10.10;99.90;;;;;;5050799;28;20099;-68
2023/01/05 07:55:40;;;;;;;14.98;3.40;;;10.00;99.90;;;;;;5049965;28;20508;-71
2023/01/05 07:58:06;;;;;;;17.33;3.17;;;10.00;99.90;;;;;;5049044;28;20426;-67
2023/01/05 08:00:31;;;;;;;14.98;3.47;;;10.00;99.90;;;;;;5050237;28;20443;-67
2023/01/05 08:02:57;;;;;;;16.80;3.33;;;10.00;99.90;;;;;;5046593;28;20501;-67
2023/01/05 08:05:22;;;;;;;21.48;4.47;;;10.00;99.90;;;;;;5040182;28;20537;-68
2023/01/05 08:07:48;;;;;;;17.90;3.00;;;10.00;99.90;;;;;;5050347;28;20390;-67
2023/01/05 08:10:28;;;;;;;22.45;3.38;;;10.00;99.90;;;;;;5048471;28;20494;-67
2023/01/05 08:15:39;;;;;;;19.60;3.55;;;10.00;99.90;;;;;;5045728;28;20084;-67
2023/01/05 08:18:04;;;;;;;13.85;2.40;;;10.00;99.90;;;;;;5048561;28;20077;-67
2023/01/05 08:20:30;;;;;;;15.27;3.30;;;10.00;99.90;;;;;;5048628;28;20098;-67
2023/01/05 08:22:56;;;;;;;20.10;4.13;;;10.00;99.90;;;;;;5045156;28;20520;-67
2023/01/05 08:25:21;;;;;;;19.67;3.58;;;10.00;99.90;;;;;;5047607;28;20417;-67
2023/01/05 08:27:47;;;;;;;18.42;3.00;;;10.00;99.90;;;;;;5046716;28;20033;-67
2023/01/05 08:30:13;;;;;;;12.82;3.05;;;10.00;99.90;;;;;;5050281;28;20033;-67
2023/01/05 08:32:39;;;;;;;20.20;3.28;;;10.10;99.90;;;;;;5050331;28;20068;-67
2023/01/05 08:35:06;;;;;;;12.75;2.83;;;10.00;99.90;;;;;;5047974;28;20052;-67
2023/01/05 08:37:31;;;;;;;14.35;3.03;;;10.10;99.90;;;;;;5050117;28;20041;-67
2023/01/05 08:39:57;;;;;;;10.80;3.10;;;10.00;99.90;;;;;;5050037;28;20090;-67
2023/01/05 08:42:22;;;;;;;17.73;3.30;;;10.10;99.90;;;;;;5048715;28;20458;-67
2023/01/05 08:44:48;;;;;;;15.55;4.28;;;10.10;99.90;;;;;;5049507;28;20045;-70
2023/01/05 08:47:13;;;;;;;17.67;4.20;;;10.10;99.90;;;;;;5050522;28;20615;-67
2023/01/05 08:49:40;;;;;;;15.10;3.17;;;10.10;99.90;;;;;;5053475;28;20067;-68
2023/01/05 08:52:07;;;;;;;17.13;3.30;;;10.10;99.90;;;;;;5051990;28;20131;-68
2023/01/05 08:54:33;;;;;;;13.23;2.65;;;10.10;99.90;;;;;;5052674;28;20037;-68
2023/01/05 08:56:58;;;;;;;16.35;2.85;;;10.10;99.90;;;;;;5052738;28;20045;-70
2023/01/05 08:59:24;;;;;;;10.45;2.28;;;10.10;99.90;;;;;;5051646;28;20532;-68
2023/01/05 09:01:50;;;;;;;17.52;3.60;;;10.10;99.90;;;;;;5052985;28;20041;-68
2023/01/05 09:04:15;;;;;;;22.85;4.75;;;10.10;99.90;;;;;;5052648;28;20460;-68
2023/01/05 09:06:41;;;;;;;18.65;3.40;;;10.10;99.90;;;;;;5053189;28;20489;-68
2023/01/05 09:09:07;;;;;;;19.77;3.47;;;10.20;99.90;;;;;;5052328;28;20080;-69
2023/01/05 09:11:33;;;;;;;23.42;3.17;;;10.20;99.90;;;;;;5052241;28;20037;-68
2023/01/05 09:14:01;;;;;;;16.35;3.22;;;10.10;99.90;;;;;;5050714;28;20059;-68
2023/01/05 09:16:30;;;;;;;19.80;2.92;;;10.20;99.90;;;;;;5053168;28;20080;-68
2023/01/05 09:18:57;;;;;;;14.00;2.63;;;10.20;99.90;;;;;;5052795;28;20553;-69
2023/01/05 09:21:22;;;;;;;16.70;3.10;;;10.20;99.90;;;;;;5051892;28;20379;-68
2023/01/05 09:23:48;;;;;;;20.00;4.35;;;10.20;99.90;;;;;;5052012;28;20070;-68
2023/01/05 09:26:15;;;;;;;15.30;2.90;;;10.20;99.90;;;;;;5052767;28;20037;-70
2023/01/05 09:28:41;;;;;;;14.07;2.95;;;10.20;99.90;;;;;;5051118;28;20051;-68
2023/01/05 09:31:13;;;;;;;10.80;2.72;;;10.20;99.90;;;;;;5052659;28;20041;-70
2023/01/05 09:33:40;;;;;;;13.73;2.67;;;10.30;99.90;;;;;;5052791;28;20040;-68
2023/01/05 09:36:07;;;;;;;25.40;3.60;;;10.30;99.90;;;;;;5050908;28;20130;-68
2023/01/05 09:38:32;;;;;;;16.83;3.30;;;10.30;99.90;;;;;;5052810;28;20044;-68
2023/01/05 09:41:22;;;;;;;19.33;3.35;;;10.30;99.90;;;;;;5051551;28;20150;-68
2023/01/05 09:43:53;;;;;;;10.95;3.83;;;10.30;99.90;;;;;;5047354;28;20107;-68
2023/01/05 09:46:23;;;;;;;17.30;4.45;;;10.30;99.90;;;;;;5034989;28;20485;-69
2023/01/05 09:48:54;;;;;;;20.25;3.08;;;10.30;99.90;;;;;;5052655;28;20439;-69
2023/01/05 09:51:20;;;;;;;12.02;2.65;;;10.30;99.90;;;;;;5052382;28;20049;-69
2023/01/05 09:53:46;;;;;;;11.05;2.63;;;10.30;99.90;;;;;;5051484;28;20044;-70
2023/01/05 09:56:36;;;;;;;14.60;3.53;;;10.30;99.90;;;;;;5051337;28;20044;-69
2023/01/05 09:59:09;;;;;;;14.48;3.08;;;10.30;99.90;;;;;;5051634;28;20393;-74
2023/01/05 10:01:36;;;;;;;7.05;2.75;;;10.30;99.90;;;;;;5050989;28;20092;-73
2023/01/05 10:04:14;;;;;;;17.48;3.10;;;10.30;99.90;;;;;;5051086;28;20044;-71
2023/01/05 10:06:44;;;;;;;17.83;2.78;;;10.30;99.90;;;;;;5050356;28;20044;-71
2023/01/05 10:09:17;;;;;;;17.73;3.75;;;10.30;99.90;;;;;;5055739;28;20040;-72
2023/01/05 10:15:14;;;;;;;12.98;3.13;;;10.30;99.90;;;;;;5055665;28;20075;-71
2023/01/05 10:17:40;;;;;;;14.40;3.47;;;10.40;99.90;;;;;;5058948;28;20041;-71
2023/01/05 10:20:20;;;;;;;9.65;2.90;;;10.40;99.90;;;;;;5060856;28;20165;-72
2023/01/05 10:22:59;;;;;;;17.77;3.03;;;10.40;99.90;;;;;;5058696;28;20068;-72
2023/01/05 10:25:41;;;;;;;13.07;3.88;;;10.40;99.90;;;;;;5058924;28;20567;-71
2023/01/05 10:28:07;;;;;;;11.38;2.40;;;10.40;99.90;;;;;;5060454;28;20037;-72
2023/01/05 10:30:32;;;;;;;16.52;3.00;;;10.40;99.90;;;;;;5055291;28;20091;-71
2023/01/05 10:33:11;;;;;;;12.40;3.15;;;10.40;99.90;;;;;;5051210;28;20425;-71
2023/01/05 10:36:04;;;;;;;18.13;2.92;;;10.40;99.90;;;;;;5046472;28;20509;-71
2023/01/05 10:38:57;;;;;;;22.27;3.42;;;10.50;99.90;;;;;;5049118;28;20095;-71
2023/01/05 10:41:25;;;;;;;9.75;2.85;;;10.50;99.90;;;;;;5048334;28;20065;-72
2023/01/05 10:44:14;;;;;;;16.63;2.90;;;10.50;99.90;;;;;;5050777;28;20041;-72
2023/01/05 10:46:46;;;;;;;12.88;2.30;;;10.50;99.90;;;;;;5048896;28;20087;-72
2023/01/05 10:49:21;;;;;;;9.55;3.00;;;10.50;99.90;;;;;;5033501;28;20048;-71
2023/01/05 10:51:49;;;;;;;21.85;2.83;;;10.50;99.90;;;;;;5049703;28;20167;-71
2023/01/05 10:54:25;;;;;;;9.40;2.70;;;10.50;99.90;;;;;;5050427;28;20041;-69
2023/01/05 10:56:51;;;;;;;13.23;3.40;;;10.60;99.90;;;;;;5051286;28;20052;-68
2023/01/05 10:59:17;;;;;;;10.30;3.30;;;10.50;99.90;;;;;;5051059;28;20064;-68
2023/01/05 11:01:45;;;;;;;14.20;2.70;;;10.60;99.90;;;;;;5051074;28;20116;-68
2023/01/05 11:04:22;;;;;;;10.00;2.47;;;10.60;99.90;;;;;;5050345;28;20048;-68
2023/01/05 11:06:48;;;;;;;15.15;2.63;;;10.70;99.90;;;;;;5050986;28;20037;-67
2023/01/05 11:09:25;;;;;;;8.35;2.88;;;10.70;99.90;;;;;;5049886;28;20091;-68
2023/01/05 11:11:53;;;;;;;11.20;3.35;;;10.70;99.90;;;;;;5050130;28;20044;-68
2023/01/05 11:14:20;;;;;;;13.80;3.00;;;10.70;99.90;;;;;;5048668;28;20123;-68
2023/01/05 11:16:52;;;;;;;18.63;3.70;;;10.70;99.90;;;;;;5049457;28;20049;-68
2023/01/05 11:19:24;;;;;;;16.05;3.20;;;10.60;99.90;;;;;;5049312;28;20037;-68
2023/01/05 11:21:50;;;;;;;10.30;3.22;;;10.70;99.90;;;;;;5051127;28;20072;-69
2023/01/05 11:24:25;;;;;;;12.82;2.78;;;10.70;99.90;;;;;;5050047;28;20100;-69
2023/01/05 11:26:55;;;;;;;12.85;2.88;;;10.70;99.90;;;;;;5051085;28;20040;-68
2023/01/05 11:29:21;;;;;;;17.88;2.95;;;10.70;99.90;;;;;;5050683;28;20050;-73
2023/01/05 11:31:58;;;;;;;16.00;3.80;;;10.70;99.90;;;;;;5049401;28;20047;-73
2023/01/05 11:34:23;;;;;;;17.08;2.85;;;10.70;99.90;;;;;;5048759;28;20049;-73
2023/01/05 11:36:53;;;;;;;15.57;3.15;;;10.70;99.90;;;;;;5050911;28;20554;-73
2023/01/05 11:39:25;;;;;;;18.92;2.97;;;10.70;99.90;;;;;;5049145;28;20520;-69
2023/01/05 11:41:52;;;;;;;16.08;3.45;;;10.70;99.90;;;;;;5050420;28;20052;-68
2023/01/05 11:44:21;;;;;;;14.43;3.08;;;10.70;99.90;;;;;;5049733;28;20519;-68
2023/01/05 11:46:48;;;;;;;13.05;3.22;;;10.70;99.90;;;;;;5050459;28;20095;-69
2023/01/05 11:49:18;;;;;;;14.23;2.65;;;10.70;99.90;;;;;;5050839;28;20045;-68
2023/01/05 11:51:44;;;;;;;16.70;2.67;;;10.70;99.90;;;;;;5049085;28;20094;-68
2023/01/05 11:54:33;;;;;;;24.95;3.28;;;10.70;99.90;;;;;;5049494;28;20090;-68
2023/01/05 11:57:13;;;;;;;17.85;2.95;;;10.70;99.90;;;;;;5050505;28;20082;-68
2023/01/05 11:59:38;;;;;;;18.80;2.47;;;10.70;99.90;;;;;;5049999;28;20041;-69
2023/01/05 12:02:42;;;;;;;13.43;2.90;;;10.70;99.90;;;;;;5049952;28;20029;-68
2023/01/05 12:05:29;;;;;;;12.35;3.00;;;10.80;99.90;;;;;;5057854;28;20036;-68
2023/01/05 12:08:06;;;;;;;12.63;2.63;;;10.70;99.90;;;;;;5060469;28;20508;-68
2023/01/05 12:10:52;;;;;;;12.25;2.63;;;10.70;99.90;;;;;;5053481;28;20048;-68
2023/01/05 12:13:29;;;;;;;16.60;4.13;;;10.70;99.90;;;;;;5065974;28;20040;-68
2023/01/05 12:16:21;;;;;;;15.45;3.40;;;10.70;99.90;;;;;;5063532;28;20037;-68
2023/01/05 12:19:19;;;;;;;18.77;2.97;;;10.70;99.90;;;;;;5058765;28;20470;-68
2023/01/05 12:22:12;;;;;;;11.60;2.78;;;10.70;99.90;;;;;;5059120;28;20433;-68
2023/01/05 12:25:09;;;;;;;11.43;2.30;;;10.70;99.90;;;;;;5059426;28;20029;-68
2023/01/05 12:27:52;;;;;;;7.85;2.78;;;10.70;99.90;;;;;;5064375;28;20035;-68
2023/01/05 12:30:40;;;;;;;18.90;3.08;;;10.70;99.90;;;;;;5058412;28;20052;-73
2023/01/05 12:33:29;;;;;;;14.73;3.28;;;10.70;99.90;;;;;;5060567;28;20057;-72
2023/01/05 12:36:11;;;;;;;10.48;2.97;;;10.70;99.90;;;;;;5072208;28;20051;-69
2023/01/05 12:38:51;;;;;;;10.63;2.90;;;10.80;99.90;;;;;;5073932;28;20094;-68
2023/01/05 12:41:35;;;;;;;23.05;4.05;;;10.70;99.90;;;;;;5073321;28;20063;-67
2023/01/05 12:44:12;;;;;;;13.98;3.80;;;10.70;99.90;;;;;;5058017;28;20098;-68
2023/01/05 12:46:53;;;;;;;10.15;2.20;;;10.70;99.90;;;;;;5063538;28;20082;-68
2023/01/05 12:49:28;;;;;;;10.32;3.05;;;10.60;99.90;;;;;;5059197;28;20513;-69
2023/01/05 12:52:13;;;;;;;9.43;2.88;;;10.50;99.90;;;;;;5051660;28;20052;-68
2023/01/05 12:55:12;;;;;;;10.50;3.55;;;10.50;99.90;;;;;;5052296;28;20040;-69
2023/01/05 12:57:47;;;;;;;16.00;3.58;;;10.50;99.90;;;;;;5053323;28;20072;-68
2023/01/05 13:00:18;;;;;;;12.93;3.40;;;10.50;99.90;;;;;;5053107;28;20040;-68
2023/01/05 13:02:54;;;;;;;16.15;3.30;;;10.50;99.90;;;;;;5053096;28;20090;-69
2023/01/05 13:05:43;;;;;;;14.45;3.42;;;10.50;99.90;;;;;;5052478;28;20371;-69
2023/01/05 13:08:34;;;;;;;17.80;3.90;;;10.50;99.90;;;;;;5053073;28;20049;-68
2023/01/05 13:11:19;;;;;;;10.25;3.05;;;10.40;99.90;;;;;;5047049;28;20456;-70
2023/01/05 13:13:53;;;;;;;19.15;5.57;;;10.40;99.90;;;;;;5051921;28;20597;-70
2023/01/05 13:16:52;;;;;;;21.92;5.75;;;10.50;99.90;;;;;;5053222;28;20076;-69
2023/01/05 13:19:24;;;;;;;12.57;4.10;;;10.50;99.90;;;;;;5009300;28;20119;-69
2023/01/05 13:21:51;;;;;;;11.85;3.08;;;10.50;99.90;;;;;;5007297;28;20403;-70
2023/01/05 13:24:28;;;;;;;16.23;3.67;;;10.50;99.90;;;;;;5008320;28;20077;-69